createdAt,value
2024-01-07T00:02:10.844Z,-3.00
2024-01-07T00:04:39.348Z,-3.00
2024-01-07T00:07:07.219Z,-3.00
2024-01-07T00:09:35.529Z,-2.90
2024-01-07T00:12:03.298Z,-2.90
2024-01-07T00:14:31.204Z,-2.90
2024-01-07T00:16:59.061Z,-2.90
2024-01-07T00:19:27.341Z,-2.80
2024-01-07T00:21:54.996Z,-2.90
2024-01-07T00:24:22.911Z,-2.90
2024-01-07T00:26:50.450Z,-3.10
2024-01-07T00:29:18.228Z,-3.20
2024-01-07T00:31:46.238Z,-3.10
2024-01-07T00:34:14.117Z,-3.10
2024-01-07T00:36:41.668Z,-3.10
2024-01-07T00:39:10.246Z,-3.10
2024-01-07T00:41:38.270Z,-3.00
2024-01-07T00:44:06.066Z,-3.10
2024-01-07T00:46:33.510Z,-3.30
2024-01-07T00:49:01.670Z,-3.30
2024-01-07T00:51:29.206Z,-3.30
2024-01-07T00:53:57.165Z,-3.40
2024-01-07T00:56:28.004Z,-3.50
2024-01-07T00:58:56.180Z,-3.40
2024-01-07T01:01:23.923Z,-3.40
2024-01-07T01:03:51.903Z,-3.40
2024-01-07T01:06:19.470Z,-3.40
2024-01-07T01:08:47.465Z,-3.30
2024-01-07T01:11:15.312Z,-3.40
2024-01-07T01:13:43.403Z,-3.40
2024-01-07T01:16:11.303Z,-3.40
2024-01-07T01:18:39.413Z,-3.40
2024-01-07T01:21:07.283Z,-3.30
2024-01-07T01:23:35.368Z,-3.40
2024-01-07T01:26:03.243Z,-3.40
2024-01-07T01:28:31.302Z,-3.40
2024-01-07T01:30:59.279Z,-3.50
2024-01-07T01:33:27.222Z,-3.50
2024-01-07T01:35:55.765Z,-3.40
2024-01-07T01:38:23.729Z,-3.40
2024-01-07T01:40:57.168Z,-3.50
2024-01-07T01:43:29.349Z,-3.50
2024-01-07T01:45:58.013Z,-3.60
2024-01-07T01:48:27.926Z,-3.60
2024-01-07T01:50:59.235Z,-3.60
2024-01-07T01:53:28.045Z,-3.50
2024-01-07T01:55:58.617Z,-3.50
2024-01-07T01:58:27.586Z,-3.50
2024-01-07T02:00:55.359Z,-3.50
2024-01-07T02:03:23.496Z,-3.60
2024-01-07T02:05:51.416Z,-3.60
2024-01-07T02:08:20.574Z,-3.70
2024-01-07T02:10:48.422Z,-3.70
2024-01-07T02:13:16.302Z,-3.70
2024-01-07T02:15:44.946Z,-3.60
2024-01-07T02:18:15.669Z,-3.60
2024-01-07T02:20:43.496Z,-3.70
2024-01-07T02:23:11.313Z,-3.70
2024-01-07T02:25:39.255Z,-3.70
2024-01-07T02:28:07.659Z,-3.80
2024-01-07T02:30:35.730Z,-3.90
2024-01-07T02:33:07.260Z,-3.90
2024-01-07T02:35:34.870Z,-3.80
2024-01-07T02:38:02.877Z,-3.90
2024-01-07T02:40:30.642Z,-3.80
2024-01-07T02:42:59.796Z,-3.90
2024-01-07T02:45:27.619Z,-3.70
2024-01-07T02:47:56.092Z,-3.80
2024-01-07T02:50:23.582Z,-3.90
2024-01-07T02:52:51.881Z,-3.90
2024-01-07T02:55:19.480Z,-4.00
2024-01-07T02:57:47.324Z,-3.90
2024-01-07T03:00:15.306Z,-4.00
2024-01-07T03:02:43.303Z,-4.00
2024-01-07T03:05:10.926Z,-4.10
2024-01-07T03:07:40.591Z,-4.20
2024-01-07T03:10:08.789Z,-4.10
2024-01-07T03:12:36.682Z,-4.20
2024-01-07T03:15:04.956Z,-4.20
2024-01-07T03:17:33.340Z,-4.30
2024-01-07T03:20:01.091Z,-4.30
2024-01-07T03:22:29.051Z,-4.30
2024-01-07T03:24:56.501Z,-4.40
2024-01-07T03:27:24.637Z,-4.40
2024-01-07T03:29:52.942Z,-4.40
2024-01-07T03:32:20.832Z,-4.50
2024-01-07T03:34:48.621Z,-4.50
2024-01-07T03:37:16.654Z,-4.40
2024-01-07T03:39:45.218Z,-4.50
2024-01-07T03:42:13.236Z,-4.60
2024-01-07T03:44:40.794Z,-4.60
2024-01-07T03:47:08.610Z,-4.60
2024-01-07T03:49:39.122Z,-4.60
2024-01-07T03:52:08.402Z,-4.60
2024-01-07T03:54:36.035Z,-4.60
2024-01-07T03:57:04.013Z,-4.50
2024-01-07T03:59:31.933Z,-4.50
2024-01-07T04:02:00.139Z,-4.70
2024-01-07T04:04:27.755Z,-4.70
2024-01-07T04:06:55.544Z,-4.70
2024-01-07T04:09:23.208Z,-4.70
2024-01-07T04:11:51.197Z,-4.80
2024-01-07T04:14:19.727Z,-4.90
2024-01-07T04:16:47.801Z,-5.00
2024-01-07T04:19:15.436Z,-5.00
2024-01-07T04:21:47.677Z,-5.10
2024-01-07T04:24:15.715Z,-5.00
2024-01-07T04:26:43.471Z,-4.90
2024-01-07T04:29:11.040Z,-4.90
2024-01-07T04:31:39.007Z,-5.10
2024-01-07T04:34:06.548Z,-5.10
2024-01-07T04:36:34.287Z,-5.10
2024-01-07T04:39:01.968Z,-5.00
2024-01-07T04:41:29.878Z,-5.00
2024-01-07T04:43:57.300Z,-5.00
2024-01-07T04:46:25.186Z,-5.00
2024-01-07T04:48:52.739Z,-5.20
2024-01-07T04:51:20.617Z,-5.10
2024-01-07T04:53:49.537Z,-5.10
2024-01-07T04:56:17.467Z,-5.20
2024-01-07T04:58:45.013Z,-5.10
2024-01-07T05:01:13.351Z,-5.20
2024-01-07T05:03:41.692Z,-5.40
2024-01-07T05:06:12.745Z,-5.40
2024-01-07T05:08:42.442Z,-5.40
2024-01-07T05:11:10.461Z,-5.30
2024-01-07T05:13:37.927Z,-5.40
2024-01-07T05:16:06.606Z,-5.40
2024-01-07T05:18:36.341Z,-5.30
2024-01-07T05:21:07.460Z,-5.30
2024-01-07T05:23:34.869Z,-5.20
2024-01-07T05:26:02.833Z,-5.30
2024-01-07T05:28:30.227Z,-5.40
2024-01-07T05:30:58.097Z,-5.40
2024-01-07T05:33:26.574Z,-5.50
2024-01-07T05:35:54.830Z,-5.40
2024-01-07T05:38:22.452Z,-5.40
2024-01-07T05:40:50.435Z,-5.50
2024-01-07T05:43:17.949Z,-5.40
2024-01-07T05:45:45.810Z,-5.30
2024-01-07T05:48:13.364Z,-5.50
2024-01-07T05:50:41.273Z,-5.70
2024-01-07T05:53:08.776Z,-5.60
2024-01-07T05:55:36.957Z,-5.70
2024-01-07T05:58:04.776Z,-5.70
2024-01-07T06:00:32.946Z,-5.60
2024-01-07T06:03:00.504Z,-5.50
2024-01-07T06:05:28.805Z,-5.60
2024-01-07T06:07:56.369Z,-5.60
2024-01-07T06:10:24.083Z,-5.60
2024-01-07T06:12:51.574Z,-5.50
2024-01-07T06:15:19.479Z,-5.50
2024-01-07T06:17:47.886Z,-5.60
2024-01-07T06:20:15.826Z,-5.70
2024-01-07T06:22:43.428Z,-5.70
2024-01-07T06:25:11.764Z,-5.70
2024-01-07T06:27:42.685Z,-5.70
2024-01-07T06:30:11.000Z,-5.70
2024-01-07T06:32:39.039Z,-5.80
2024-01-07T06:35:07.608Z,-5.90
2024-01-07T06:37:36.123Z,-5.90
2024-01-07T06:40:04.996Z,-5.80
2024-01-07T06:42:32.683Z,-5.80
2024-01-07T06:45:00.615Z,-5.90
2024-01-07T06:47:28.239Z,-5.90
2024-01-07T06:49:56.160Z,-6.00
2024-01-07T06:52:23.882Z,-6.00
2024-01-07T06:54:52.025Z,-5.90
2024-01-07T06:57:19.855Z,-6.00
2024-01-07T06:59:48.627Z,-6.10
2024-01-07T07:02:16.956Z,-6.10
2024-01-07T07:04:44.871Z,-6.10
2024-01-07T07:07:12.720Z,-6.10
2024-01-07T07:09:40.605Z,-6.10
2024-01-07T07:12:09.811Z,-6.10
2024-01-07T07:14:38.406Z,-6.30
2024-01-07T07:17:05.899Z,-6.30
2024-01-07T07:19:34.018Z,-6.30
2024-01-07T07:22:01.628Z,-6.20
2024-01-07T07:24:30.703Z,-6.20
2024-01-07T07:26:58.302Z,-6.10
2024-01-07T07:29:26.136Z,-6.20
2024-01-07T07:31:53.794Z,-6.10
2024-01-07T07:34:22.058Z,-6.30
2024-01-07T07:36:50.981Z,-6.40
2024-01-07T07:39:18.991Z,-6.40
2024-01-07T07:41:46.590Z,-6.20
2024-01-07T07:44:14.507Z,-6.10
2024-01-07T07:46:42.463Z,-6.20
2024-01-07T07:49:10.199Z,-6.20
2024-01-07T07:51:37.742Z,-6.00
2024-01-07T07:54:06.657Z,-5.80
2024-01-07T07:56:34.378Z,-5.90
2024-01-07T07:59:02.498Z,-5.90
2024-01-07T08:01:30.366Z,-5.90
2024-01-07T08:03:58.272Z,-5.90
2024-01-07T08:06:27.379Z,-5.90
2024-01-07T08:08:56.294Z,-5.80
2024-01-07T08:11:24.153Z,-5.70
2024-01-07T08:13:54.085Z,-5.80
2024-01-07T08:16:22.759Z,-5.90
2024-01-07T08:18:51.223Z,-5.90
2024-01-07T08:21:18.772Z,-5.90
2024-01-07T08:23:46.883Z,-5.80
2024-01-07T08:26:19.185Z,-5.60
2024-01-07T08:28:47.497Z,-5.90
2024-01-07T08:31:15.067Z,-5.70
2024-01-07T08:33:43.242Z,-5.60
2024-01-07T08:36:10.835Z,-5.60
2024-01-07T08:38:38.747Z,-5.50
2024-01-07T08:41:06.309Z,-5.60
2024-01-07T08:43:34.089Z,-5.60
2024-01-07T08:46:02.722Z,-5.60
2024-01-07T08:48:30.734Z,-5.60
2024-01-07T08:50:58.666Z,-5.60
2024-01-07T08:53:26.797Z,-5.50
2024-01-07T08:55:54.463Z,-5.20
2024-01-07T08:58:22.393Z,-5.10
2024-01-07T09:00:50.577Z,-5.50
2024-01-07T09:03:19.728Z,-5.60
2024-01-07T09:05:48.933Z,-5.60
2024-01-07T09:08:18.425Z,-5.40
2024-01-07T09:10:45.937Z,-5.60
2024-01-07T09:13:14.183Z,-5.70
2024-01-07T09:15:41.735Z,-5.50
2024-01-07T09:18:09.939Z,-5.60
2024-01-07T09:20:37.907Z,-5.60
2024-01-07T09:23:06.106Z,-5.70
2024-01-07T09:25:33.643Z,-5.90
2024-01-07T09:28:02.214Z,-5.60
2024-01-07T09:30:30.056Z,-5.60
2024-01-07T09:32:58.488Z,-5.60
2024-01-07T09:35:26.704Z,-5.50
2024-01-07T09:37:54.631Z,-5.30
2024-01-07T09:40:23.663Z,-5.40
2024-01-07T09:42:51.832Z,-5.50
2024-01-07T09:45:21.580Z,-5.20
2024-01-07T09:47:50.496Z,-5.10
2024-01-07T09:50:18.495Z,-5.10
2024-01-07T09:52:48.271Z,-5.20
2024-01-07T09:55:29.638Z,-5.40
2024-01-07T09:57:57.793Z,-5.30
2024-01-07T10:00:28.504Z,-5.30
2024-01-07T10:02:56.630Z,-5.10
2024-01-07T10:05:24.076Z,-5.00
2024-01-07T10:07:55.554Z,-5.00
2024-01-07T10:10:23.051Z,-5.00
2024-01-07T10:12:54.325Z,-5.30
2024-01-07T10:15:22.219Z,-5.40
2024-01-07T10:17:50.062Z,-5.30
2024-01-07T10:20:18.497Z,-5.30
2024-01-07T10:22:52.354Z,-5.40
2024-01-07T10:25:20.518Z,-5.40
2024-01-07T10:27:49.588Z,-5.30
2024-01-07T10:30:17.968Z,-5.10
2024-01-07T10:32:47.729Z,-4.90
2024-01-07T10:35:16.348Z,-4.70
2024-01-07T10:37:46.532Z,-5.10
2024-01-07T10:40:14.950Z,-5.30
2024-01-07T10:42:45.606Z,-5.20
2024-01-07T10:45:13.381Z,-5.30
2024-01-07T10:47:43.153Z,-5.20
2024-01-07T10:50:15.515Z,-5.30
2024-01-07T10:52:47.871Z,-5.10
2024-01-07T10:55:18.799Z,-5.30
2024-01-07T10:57:49.802Z,-5.30
2024-01-07T11:00:21.864Z,-5.60
2024-01-07T11:03:29.745Z,-5.40
2024-01-07T11:06:06.494Z,-5.50
2024-01-07T11:08:55.888Z,-5.20
2024-01-07T11:11:40.107Z,-5.00
2024-01-07T11:14:40.970Z,-5.30
2024-01-07T11:17:09.241Z,-5.30
2024-01-07T11:19:37.673Z,-5.50
2024-01-07T11:22:29.514Z,-5.60
2024-01-07T11:25:06.821Z,-5.60
2024-01-07T11:27:35.427Z,-5.30
2024-01-07T11:30:11.500Z,-5.30
2024-01-07T11:32:41.592Z,-5.20
2024-01-07T11:35:10.081Z,-5.30
2024-01-07T11:37:38.418Z,-5.00
2024-01-07T11:40:08.663Z,-5.20
2024-01-07T11:42:36.377Z,-5.20
2024-01-07T11:45:04.405Z,-5.20
2024-01-07T11:47:32.071Z,-5.10
2024-01-07T11:50:01.487Z,-5.20
2024-01-07T11:52:30.637Z,-5.10
2024-01-07T11:54:59.156Z,-5.10
2024-01-07T11:57:26.743Z,-5.10
2024-01-07T11:59:54.659Z,-4.90
2024-01-07T12:02:22.264Z,-5.00
2024-01-07T12:04:51.251Z,-5.20
2024-01-07T12:07:18.919Z,-5.00
2024-01-07T12:09:47.333Z,-5.30
2024-01-07T12:12:15.497Z,-5.40
2024-01-07T12:14:44.380Z,-5.30
2024-01-07T12:17:14.050Z,-5.30
2024-01-07T12:19:43.240Z,-5.30
2024-01-07T12:22:11.714Z,-5.20
2024-01-07T12:24:39.707Z,-5.10
2024-01-07T12:27:10.563Z,-5.00
2024-01-07T12:29:38.369Z,-5.00
2024-01-07T12:32:07.406Z,-5.10
2024-01-07T12:34:35.865Z,-5.30
2024-01-07T12:37:03.826Z,-5.30
2024-01-07T12:39:32.179Z,-5.30
2024-01-07T12:42:00.335Z,-5.30
2024-01-07T12:44:30.048Z,-5.40
2024-01-07T12:46:57.695Z,-5.40
2024-01-07T12:49:25.887Z,-5.40
2024-01-07T12:51:54.158Z,-5.40
2024-01-07T12:54:23.193Z,-5.50
2024-01-07T12:56:50.770Z,-5.70
2024-01-07T12:59:19.305Z,-5.50
2024-01-07T13:01:49.803Z,-5.40
2024-01-07T13:04:19.463Z,-5.40
2024-01-07T13:06:47.403Z,-5.40
2024-01-07T13:09:15.576Z,-5.60
2024-01-07T13:11:43.426Z,-5.70
2024-01-07T13:14:11.644Z,-5.90
2024-01-07T13:16:39.092Z,-5.80
2024-01-07T13:19:07.237Z,-5.80
2024-01-07T13:21:38.061Z,-5.70
2024-01-07T13:24:07.666Z,-5.40
2024-01-07T13:26:35.237Z,-5.60
2024-01-07T13:29:05.057Z,-5.80
2024-01-07T13:31:33.853Z,-6.00
2024-01-07T13:34:01.916Z,-6.00
2024-01-07T13:36:29.627Z,-6.10
2024-01-07T13:38:57.565Z,-6.20
2024-01-07T13:41:25.204Z,-6.20
2024-01-07T13:43:54.200Z,-6.20
2024-01-07T13:46:25.349Z,-6.10
2024-01-07T13:48:55.278Z,-6.10
2024-01-07T13:51:23.019Z,-6.10
2024-01-07T13:53:51.325Z,-6.20
2024-01-07T13:56:18.908Z,-6.20
2024-01-07T13:58:50.466Z,-6.20
2024-01-07T14:01:18.554Z,-6.10
2024-01-07T14:03:46.720Z,-6.10
2024-01-07T14:06:14.823Z,-6.00
2024-01-07T14:08:42.961Z,-6.00
2024-01-07T14:11:10.406Z,-6.10
2024-01-07T14:13:38.332Z,-6.10
2024-01-07T14:16:10.821Z,-6.20
2024-01-07T14:18:38.892Z,-6.30
2024-01-07T14:21:07.174Z,-6.30
2024-01-07T14:23:35.420Z,-6.30
2024-01-07T14:26:04.232Z,-6.30
2024-01-07T14:28:32.307Z,-6.40
2024-01-07T14:31:00.416Z,-6.50
2024-01-07T14:33:28.802Z,-6.50
2024-01-07T14:35:57.409Z,-6.50
2024-01-07T14:38:26.930Z,-6.60
2024-01-07T14:40:55.269Z,-6.60
2024-01-07T14:43:23.328Z,-6.60
2024-01-07T14:45:50.979Z,-6.50
2024-01-07T14:48:19.117Z,-6.40
2024-01-07T14:50:49.556Z,-6.50
2024-01-07T14:53:17.703Z,-6.40
2024-01-07T14:55:45.397Z,-6.30
2024-01-07T14:58:13.324Z,-6.30
2024-01-07T15:00:41.075Z,-6.40
2024-01-07T15:03:09.540Z,-6.30
2024-01-07T15:05:37.602Z,-6.50
2024-01-07T15:08:05.819Z,-6.50
2024-01-07T15:10:34.398Z,-6.50
2024-01-07T15:13:07.352Z,-6.50
2024-01-07T15:15:42.740Z,-6.50
2024-01-07T15:18:10.640Z,-6.70
2024-01-07T15:20:38.326Z,-6.70
2024-01-07T15:23:06.302Z,-6.60
2024-01-07T15:25:34.089Z,-6.60
2024-01-07T15:28:01.991Z,-6.40
2024-01-07T15:30:29.797Z,-6.40
2024-01-07T15:32:58.402Z,-6.50
2024-01-07T15:35:26.541Z,-6.40
2024-01-07T15:37:56.078Z,-6.50
2024-01-07T15:40:23.799Z,-6.50
2024-01-07T15:42:52.122Z,-6.40
2024-01-07T15:45:20.294Z,-6.40
2024-01-07T15:47:48.696Z,-6.30
2024-01-07T15:50:16.827Z,-6.30
2024-01-07T15:52:47.710Z,-6.60
2024-01-07T15:55:15.916Z,-6.60
2024-01-07T15:57:46.267Z,-6.50
2024-01-07T16:00:16.532Z,-6.60
2024-01-07T16:02:47.362Z,-6.60
2024-01-07T16:05:16.181Z,-6.60
2024-01-07T16:07:44.986Z,-6.40
2024-01-07T16:10:14.098Z,-6.40
2024-01-07T16:12:43.650Z,-6.40
2024-01-07T16:15:12.008Z,-6.60
2024-01-07T16:17:40.759Z,-6.60
2024-01-07T16:20:12.922Z,-6.60
2024-01-07T16:22:41.692Z,-6.70
2024-01-07T16:25:09.944Z,-6.70
2024-01-07T16:27:38.797Z,-6.70
2024-01-07T16:30:08.186Z,-6.70
2024-01-07T16:32:36.420Z,-6.70
2024-01-07T16:35:04.165Z,-6.70
2024-01-07T16:37:33.365Z,-6.90
2024-01-07T16:40:01.910Z,-6.80
2024-01-07T16:42:32.660Z,-6.80
2024-01-07T16:45:00.441Z,-6.90
2024-01-07T16:47:28.537Z,-6.80
2024-01-07T16:50:20.826Z,-6.80
2024-01-07T16:52:44.532Z,-6.70
2024-01-07T16:55:13.087Z,-6.70
2024-01-07T16:57:42.931Z,-6.70
2024-01-07T17:00:11.631Z,-6.60
2024-01-07T17:02:39.787Z,-6.60
2024-01-07T17:05:07.730Z,-6.70
2024-01-07T17:07:36.634Z,-6.80
2024-01-07T17:10:06.638Z,-6.80
2024-01-07T17:12:35.666Z,-6.80
2024-01-07T17:15:04.727Z,-6.80
2024-01-07T17:17:32.888Z,-6.70
2024-01-07T17:20:00.990Z,-6.80
2024-01-07T17:22:29.306Z,-6.80
2024-01-07T17:24:57.263Z,-6.70
2024-01-07T17:27:28.794Z,-6.70
2024-01-07T17:29:56.700Z,-6.90
2024-01-07T17:32:26.196Z,-6.90
2024-01-07T17:34:55.773Z,-6.90
2024-01-07T17:37:24.517Z,-7.00
2024-01-07T17:39:51.919Z,-7.00
2024-01-07T17:42:22.829Z,-7.00
2024-01-07T17:44:51.167Z,-7.10
2024-01-07T17:47:19.324Z,-6.90
2024-01-07T17:49:47.377Z,-7.00
2024-01-07T17:52:16.557Z,-7.10
2024-01-07T17:54:44.483Z,-7.10
2024-01-07T17:57:13.411Z,-7.10
2024-01-07T17:59:41.074Z,-7.00
2024-01-07T18:02:14.808Z,-7.10
2024-01-07T18:04:44.797Z,-7.20
2024-01-07T18:07:15.845Z,-7.10
2024-01-07T18:09:43.487Z,-7.20
2024-01-07T18:12:12.654Z,-7.20
2024-01-07T18:14:40.586Z,-7.20
2024-01-07T18:17:08.425Z,-7.00
2024-01-07T18:19:35.967Z,-6.70
2024-01-07T18:22:04.388Z,-6.80
2024-01-07T18:24:33.349Z,-6.90
2024-01-07T18:27:03.672Z,-6.90
2024-01-07T18:29:31.798Z,-6.90
2024-01-07T18:32:02.566Z,-7.00
2024-01-07T18:34:30.770Z,-7.00
2024-01-07T18:37:01.748Z,-7.00
2024-01-07T18:39:29.470Z,-7.20
2024-01-07T18:41:57.420Z,-7.20
2024-01-07T18:44:27.227Z,-7.30
2024-01-07T18:46:55.332Z,-7.30
2024-01-07T18:49:22.863Z,-7.30
2024-01-07T18:51:50.949Z,-7.20
2024-01-07T18:54:18.627Z,-7.30
2024-01-07T18:56:47.032Z,-7.40
2024-01-07T18:59:15.654Z,-7.30
2024-01-07T19:01:44.621Z,-7.30
2024-01-07T19:04:12.628Z,-7.40
2024-01-07T19:06:44.422Z,-7.30
2024-01-07T19:09:13.322Z,-7.20
2024-01-07T19:11:43.618Z,-7.30
2024-01-07T19:14:12.143Z,-7.30
2024-01-07T19:16:44.120Z,-7.30
2024-01-07T19:19:13.334Z,-7.30
2024-01-07T19:21:42.947Z,-7.20
2024-01-07T19:24:10.978Z,-7.20
2024-01-07T19:26:42.007Z,-7.50
2024-01-07T19:29:10.467Z,-7.40
2024-01-07T19:31:39.969Z,-7.40
2024-01-07T19:34:07.484Z,-7.50
2024-01-07T19:36:40.161Z,-7.50
2024-01-07T19:39:09.125Z,-7.70
2024-01-07T19:41:38.485Z,-7.50
2024-01-07T19:44:08.941Z,-7.50
2024-01-07T19:46:38.606Z,-7.50
2024-01-07T19:49:10.931Z,-7.70
2024-01-07T19:51:39.698Z,-7.80
2024-01-07T19:54:07.740Z,-7.90
2024-01-07T19:56:36.141Z,-7.80
2024-01-07T19:59:04.832Z,-7.90
2024-01-07T20:01:32.818Z,-8.00
2024-01-07T20:04:00.726Z,-8.00
2024-01-07T20:06:30.941Z,-8.00
2024-01-07T20:08:58.914Z,-8.00
2024-01-07T20:11:27.860Z,-7.90
2024-01-07T20:13:55.737Z,-8.00
2024-01-07T20:16:23.604Z,-7.90
2024-01-07T20:18:53.135Z,-8.00
2024-01-07T20:21:24.985Z,-8.10
2024-01-07T20:23:59.461Z,-8.30
2024-01-07T20:26:28.175Z,-8.20
2024-01-07T20:28:57.900Z,-8.30
2024-01-07T20:31:26.568Z,-8.50
2024-01-07T20:33:54.620Z,-8.50
2024-01-07T20:36:23.015Z,-8.40
2024-01-07T20:38:51.235Z,-8.50
2024-01-07T20:41:21.086Z,-8.50
2024-01-07T20:43:48.893Z,-8.60
2024-01-07T20:46:16.907Z,-8.50
2024-01-07T20:48:44.537Z,-8.70
2024-01-07T20:51:14.596Z,-8.80
2024-01-07T20:53:43.890Z,-8.60
2024-01-07T20:56:11.951Z,-8.60
2024-01-07T20:58:39.935Z,-8.60
2024-01-07T21:01:10.559Z,-8.50
2024-01-07T21:03:38.373Z,-8.60
2024-01-07T21:06:06.722Z,-8.50
2024-01-07T21:08:36.547Z,-8.50
2024-01-07T21:11:06.419Z,-8.40
2024-01-07T21:13:34.843Z,-8.40
2024-01-07T21:16:04.021Z,-8.40
2024-01-07T21:18:31.702Z,-8.40
2024-01-07T21:20:59.547Z,-8.50
2024-01-07T21:23:26.957Z,-8.50
2024-01-07T21:25:54.968Z,-8.50
2024-01-07T21:28:24.167Z,-8.60
2024-01-07T21:30:52.011Z,-8.80
2024-01-07T21:33:20.175Z,-8.70
2024-01-07T21:35:48.578Z,-8.60
2024-01-07T21:38:17.640Z,-8.60
2024-01-07T21:40:47.186Z,-8.50
2024-01-07T21:43:14.685Z,-8.50
2024-01-07T21:45:42.943Z,-8.60
2024-01-07T21:48:11.659Z,-8.80
2024-01-07T21:50:40.247Z,-9.00
2024-01-07T21:53:08.644Z,-9.00
2024-01-07T21:55:38.784Z,-8.90
2024-01-07T21:58:06.523Z,-9.10
2024-01-07T22:00:35.143Z,-9.00
2024-01-07T22:03:02.991Z,-9.00
2024-01-07T22:05:31.176Z,-9.00
2024-01-07T22:07:58.842Z,-9.00
2024-01-07T22:10:26.779Z,-8.90
2024-01-07T22:12:54.357Z,-8.90
2024-01-07T22:15:22.122Z,-9.10
2024-01-07T22:17:50.168Z,-9.10
2024-01-07T22:20:19.397Z,-9.00
2024-01-07T22:22:47.443Z,-9.00
2024-01-07T22:25:16.412Z,-9.20
2024-01-07T22:27:44.914Z,-9.30
2024-01-07T22:30:14.227Z,-9.30
2024-01-07T22:32:42.630Z,-9.10
2024-01-07T22:35:12.472Z,-9.10
2024-01-07T22:37:40.219Z,-9.10
2024-01-07T22:40:08.685Z,-9.30
2024-01-07T22:42:36.389Z,-9.30
2024-01-07T22:45:04.626Z,-9.30
2024-01-07T22:47:32.581Z,-9.10
2024-01-07T22:50:00.686Z,-9.10
2024-01-07T22:52:28.692Z,-9.10
2024-01-07T22:54:56.499Z,-9.00
2024-01-07T22:57:24.313Z,-9.00
2024-01-07T22:59:52.561Z,-9.10
2024-01-07T23:02:20.492Z,-9.10
2024-01-07T23:04:48.655Z,-9.20
2024-01-07T23:07:16.412Z,-9.10
2024-01-07T23:09:45.727Z,-9.00
2024-01-07T23:12:13.374Z,-8.90
2024-01-07T23:14:41.223Z,-9.00
2024-01-07T23:17:08.808Z,-8.90
2024-01-07T23:19:36.763Z,-8.90
2024-01-07T23:22:05.311Z,-8.90
2024-01-07T23:24:33.261Z,-8.90
2024-01-07T23:27:01.032Z,-9.10
2024-01-07T23:29:29.240Z,-9.20
2024-01-07T23:31:59.032Z,-9.30
2024-01-07T23:34:29.637Z,-9.30
2024-01-07T23:36:57.438Z,-9.10
2024-01-07T23:39:25.940Z,-9.20
2024-01-07T23:41:54.409Z,-9.20
2024-01-07T23:44:23.887Z,-9.20
2024-01-07T23:46:51.464Z,-9.40
2024-01-07T23:49:19.707Z,-9.50
2024-01-07T23:51:48.507Z,-9.30
2024-01-07T23:54:16.846Z,-9.30
2024-01-07T23:56:45.191Z,-9.40
2024-01-07T23:59:13.361Z,-9.30
